sensor_id;sensor_type;location;lat;lon;timestamp;P1;durP1;ratioP1;P2;durP2;ratioP2
7450;SDS011;3767;42.688;23.360;2022-12-05T00:02:06;7.77;;;4.93;;
7450;SDS011;3767;42.688;23.360;2022-12-05T00:04:33;6.87;;;5.03;;
7450;SDS011;3767;42.688;23.360;2022-12-05T00:06:59;9.07;;;5.60;;
7450;SDS011;3767;42.688;23.360;2022-12-05T00:09:26;10.10;;;5.90;;
7450;SDS011;3767;42.688;23.360;2022-12-05T00:11:54;10.40;;;6.10;;
7450;SDS011;3767;42.688;23.360;2022-12-05T00:14:21;10.17;;;5.87;;
7450;SDS011;3767;42.688;23.360;2022-12-05T00:16:47;12.27;;;6.37;;
7450;SDS011;3767;42.688;23.360;2022-12-05T00:19:14;13.47;;;6.70;;
7450;SDS011;3767;42.688;23.360;2022-12-05T00:21:41;10.03;;;6.37;;
7450;SDS011;3767;42.688;23.360;2022-12-05T00:24:10;12.23;;;6.90;;
7450;SDS011;3767;42.688;23.360;2022-12-05T00:26:37;12.93;;;6.43;;
7450;SDS011;3767;42.688;23.360;2022-12-05T00:29:04;11.27;;;6.50;;
7450;SDS011;3767;42.688;23.360;2022-12-05T00:31:31;12.17;;;6.73;;
7450;SDS011;3767;42.688;23.360;2022-12-05T00:33:58;11.30;;;6.53;;
7450;SDS011;3767;42.688;23.360;2022-12-05T00:36:25;12.70;;;6.87;;
7450;SDS011;3767;42.688;23.360;2022-12-05T00:38:53;11.13;;;6.67;;
7450;SDS011;3767;42.688;23.360;2022-12-05T00:41:20;11.10;;;6.37;;
7450;SDS011;3767;42.688;23.360;2022-12-05T00:43:46;9.00;;;6.37;;
7450;SDS011;3767;42.688;23.360;2022-12-05T00:46:15;12.97;;;6.33;;
7450;SDS011;3767;42.688;23.360;2022-12-05T00:48:43;11.13;;;6.57;;
7450;SDS011;3767;42.688;23.360;2022-12-05T00:51:10;9.93;;;5.93;;
7450;SDS011;3767;42.688;23.360;2022-12-05T00:53:37;12.40;;;6.67;;
7450;SDS011;3767;42.688;23.360;2022-12-05T00:56:04;12.80;;;7.20;;
7450;SDS011;3767;42.688;23.360;2022-12-05T00:58:31;12.80;;;6.50;;
7450;SDS011;3767;42.688;23.360;2022-12-05T01:01:03;11.43;;;6.07;;
7450;SDS011;3767;42.688;23.360;2022-12-05T01:03:32;13.67;;;6.53;;
7450;SDS011;3767;42.688;23.360;2022-12-05T01:05:58;10.43;;;6.00;;
7450;SDS011;3767;42.688;23.360;2022-12-05T01:08:25;11.70;;;6.17;;
7450;SDS011;3767;42.688;23.360;2022-12-05T01:10:52;10.40;;;5.63;;
7450;SDS011;3767;42.688;23.360;2022-12-05T01:13:18;10.80;;;5.80;;
7450;SDS011;3767;42.688;23.360;2022-12-05T01:15:45;10.67;;;5.70;;
7450;SDS011;3767;42.688;23.360;2022-12-05T01:18:12;13.43;;;6.70;;
7450;SDS011;3767;42.688;23.360;2022-12-05T01:20:40;11.50;;;6.00;;
7450;SDS011;3767;42.688;23.360;2022-12-05T01:23:07;10.50;;;6.40;;
7450;SDS011;3767;42.688;23.360;2022-12-05T01:25:33;9.40;;;5.60;;
7450;SDS011;3767;42.688;23.360;2022-12-05T01:28:00;8.70;;;5.70;;
7450;SDS011;3767;42.688;23.360;2022-12-05T01:30:26;9.07;;;5.70;;
7450;SDS011;3767;42.688;23.360;2022-12-05T01:32:53;11.07;;;5.63;;
7450;SDS011;3767;42.688;23.360;2022-12-05T01:35:19;8.50;;;5.83;;
7450;SDS011;3767;42.688;23.360;2022-12-05T01:37:47;12.70;;;6.33;;
7450;SDS011;3767;42.688;23.360;2022-12-05T01:40:14;11.57;;;5.77;;
7450;SDS011;3767;42.688;23.360;2022-12-05T01:42:40;11.00;;;6.53;;
7450;SDS011;3767;42.688;23.360;2022-12-05T01:45:11;12.27;;;6.60;;
7450;SDS011;3767;42.688;23.360;2022-12-05T01:47:39;11.73;;;6.83;;
7450;SDS011;3767;42.688;23.360;2022-12-05T01:50:06;10.43;;;5.87;;
7450;SDS011;3767;42.688;23.360;2022-12-05T01:52:32;13.27;;;7.13;;
7450;SDS011;3767;42.688;23.360;2022-12-05T01:55:01;10.83;;;6.37;;
7450;SDS011;3767;42.688;23.360;2022-12-05T01:57:29;8.97;;;5.43;;
7450;SDS011;3767;42.688;23.360;2022-12-05T01:59:57;10.57;;;6.10;;
7450;SDS011;3767;42.688;23.360;2022-12-05T02:02:24;12.73;;;6.23;;
7450;SDS011;3767;42.688;23.360;2022-12-05T02:04:54;11.37;;;6.20;;
7450;SDS011;3767;42.688;23.360;2022-12-05T02:07:22;10.07;;;6.23;;
7450;SDS011;3767;42.688;23.360;2022-12-05T02:09:49;10.57;;;5.93;;
7450;SDS011;3767;42.688;23.360;2022-12-05T02:12:17;9.93;;;6.10;;
7450;SDS011;3767;42.688;23.360;2022-12-05T02:14:46;8.53;;;5.70;;
7450;SDS011;3767;42.688;23.360;2022-12-05T02:17:14;12.73;;;6.90;;
7450;SDS011;3767;42.688;23.360;2022-12-05T02:20:06;10.47;;;6.90;;
7450;SDS011;3767;42.688;23.360;2022-12-05T02:22:41;13.50;;;7.13;;
7450;SDS011;3767;42.688;23.360;2022-12-05T02:25:12;12.17;;;7.07;;
7450;SDS011;3767;42.688;23.360;2022-12-05T02:27:52;11.03;;;6.67;;
7450;SDS011;3767;42.688;23.360;2022-12-05T02:30:22;13.13;;;6.90;;
7450;SDS011;3767;42.688;23.360;2022-12-05T02:32:51;14.00;;;7.23;;
7450;SDS011;3767;42.688;23.360;2022-12-05T02:38:10;12.60;;;6.30;;
7450;SDS011;3767;42.688;23.360;2022-12-05T02:40:40;11.77;;;6.23;;
7450;SDS011;3767;42.688;23.360;2022-12-05T02:43:09;15.37;;;6.47;;
7450;SDS011;3767;42.688;23.360;2022-12-05T02:45:40;10.57;;;6.03;;
7450;SDS011;3767;42.688;23.360;2022-12-05T02:48:07;10.13;;;5.80;;
7450;SDS011;3767;42.688;23.360;2022-12-05T02:50:35;13.20;;;6.13;;
7450;SDS011;3767;42.688;23.360;2022-12-05T02:53:03;12.00;;;5.90;;
7450;SDS011;3767;42.688;23.360;2022-12-05T02:55:32;7.33;;;5.20;;
7450;SDS011;3767;42.688;23.360;2022-12-05T02:58:00;9.63;;;5.13;;
7450;SDS011;3767;42.688;23.360;2022-12-05T03:00:28;10.37;;;5.90;;
7450;SDS011;3767;42.688;23.360;2022-12-05T03:02:56;9.60;;;5.80;;
7450;SDS011;3767;42.688;23.360;2022-12-05T03:05:26;8.20;;;5.83;;
7450;SDS011;3767;42.688;23.360;2022-12-05T03:07:55;10.60;;;5.90;;
7450;SDS011;3767;42.688;23.360;2022-12-05T03:10:23;10.17;;;5.73;;
7450;SDS011;3767;42.688;23.360;2022-12-05T03:12:52;8.37;;;5.73;;
7450;SDS011;3767;42.688;23.360;2022-12-05T03:15:22;10.40;;;5.70;;
7450;SDS011;3767;42.688;23.360;2022-12-05T03:17:50;9.77;;;5.63;;
7450;SDS011;3767;42.688;23.360;2022-12-05T03:20:20;10.40;;;5.73;;
7450;SDS011;3767;42.688;23.360;2022-12-05T03:22:48;9.23;;;5.23;;
7450;SDS011;3767;42.688;23.360;2022-12-05T03:25:16;9.40;;;5.93;;
7450;SDS011;3767;42.688;23.360;2022-12-05T03:27:45;10.80;;;5.60;;
7450;SDS011;3767;42.688;23.360;2022-12-05T03:30:13;9.67;;;6.30;;
7450;SDS011;3767;42.688;23.360;2022-12-05T03:32:41;11.83;;;5.93;;
7450;SDS011;3767;42.688;23.360;2022-12-05T03:35:11;8.87;;;5.50;;
7450;SDS011;3767;42.688;23.360;2022-12-05T03:37:44;11.33;;;6.17;;
7450;SDS011;3767;42.688;23.360;2022-12-05T03:40:14;11.30;;;5.70;;
7450;SDS011;3767;42.688;23.360;2022-12-05T03:42:46;8.50;;;5.70;;
7450;SDS011;3767;42.688;23.360;2022-12-05T03:45:14;10.03;;;5.87;;
7450;SDS011;3767;42.688;23.360;2022-12-05T03:47:44;8.97;;;5.73;;
7450;SDS011;3767;42.688;23.360;2022-12-05T03:50:13;10.03;;;5.73;;
7450;SDS011;3767;42.688;23.360;2022-12-05T03:52:46;9.50;;;5.50;;
7450;SDS011;3767;42.688;23.360;2022-12-05T03:55:14;10.13;;;6.17;;
7450;SDS011;3767;42.688;23.360;2022-12-05T03:57:42;16.20;;;6.90;;
7450;SDS011;3767;42.688;23.360;2022-12-05T04:00:10;10.73;;;6.00;;
7450;SDS011;3767;42.688;23.360;2022-12-05T04:02:38;10.20;;;5.83;;
7450;SDS011;3767;42.688;23.360;2022-12-05T04:05:11;10.17;;;5.53;;
7450;SDS011;3767;42.688;23.360;2022-12-05T04:07:39;11.60;;;5.70;;
7450;SDS011;3767;42.688;23.360;2022-12-05T04:10:09;10.70;;;6.17;;
7450;SDS011;3767;42.688;23.360;2022-12-05T04:12:37;12.60;;;6.90;;
7450;SDS011;3767;42.688;23.360;2022-12-05T04:15:07;12.57;;;6.67;;
7450;SDS011;3767;42.688;23.360;2022-12-05T04:17:36;12.87;;;6.20;;
7450;SDS011;3767;42.688;23.360;2022-12-05T04:20:05;15.93;;;6.97;;
7450;SDS011;3767;42.688;23.360;2022-12-05T04:22:52;11.17;;;6.43;;
7450;SDS011;3767;42.688;23.360;2022-12-05T04:25:20;11.13;;;6.30;;
7450;SDS011;3767;42.688;23.360;2022-12-05T04:28:02;12.20;;;6.33;;
7450;SDS011;3767;42.688;23.360;2022-12-05T04:30:32;9.87;;;6.00;;
7450;SDS011;3767;42.688;23.360;2022-12-05T04:33:02;10.50;;;6.00;;
7450;SDS011;3767;42.688;23.360;2022-12-05T04:35:31;11.97;;;6.43;;
7450;SDS011;3767;42.688;23.360;2022-12-05T04:38:01;11.87;;;5.93;;
7450;SDS011;3767;42.688;23.360;2022-12-05T04:40:33;11.27;;;6.43;;
7450;SDS011;3767;42.688;23.360;2022-12-05T04:43:00;11.20;;;6.50;;
7450;SDS011;3767;42.688;23.360;2022-12-05T04:45:28;13.60;;;6.60;;
7450;SDS011;3767;42.688;23.360;2022-12-05T04:47:56;11.93;;;6.00;;
7450;SDS011;3767;42.688;23.360;2022-12-05T04:50:25;12.07;;;6.60;;
7450;SDS011;3767;42.688;23.360;2022-12-05T04:52:53;11.00;;;6.30;;
7450;SDS011;3767;42.688;23.360;2022-12-05T04:55:21;11.13;;;6.53;;
7450;SDS011;3767;42.688;23.360;2022-12-05T04:57:55;12.43;;;6.27;;
7450;SDS011;3767;42.688;23.360;2022-12-05T05:00:23;11.67;;;6.03;;
7450;SDS011;3767;42.688;23.360;2022-12-05T05:02:50;13.50;;;6.07;;
7450;SDS011;3767;42.688;23.360;2022-12-05T05:05:19;10.77;;;5.53;;
7450;SDS011;3767;42.688;23.360;2022-12-05T05:07:47;12.67;;;6.23;;
7450;SDS011;3767;42.688;23.360;2022-12-05T05:10:15;10.03;;;6.07;;
7450;SDS011;3767;42.688;23.360;2022-12-05T05:12:43;12.77;;;6.53;;
7450;SDS011;3767;42.688;23.360;2022-12-05T05:15:11;11.90;;;6.13;;
7450;SDS011;3767;42.688;23.360;2022-12-05T05:17:38;12.73;;;6.33;;
7450;SDS011;3767;42.688;23.360;2022-12-05T05:20:04;15.03;;;6.50;;
7450;SDS011;3767;42.688;23.360;2022-12-05T05:22:46;12.70;;;6.23;;
7450;SDS011;3767;42.688;23.360;2022-12-05T05:25:13;11.60;;;6.60;;
7450;SDS011;3767;42.688;23.360;2022-12-05T05:27:39;13.60;;;7.70;;
7450;SDS011;3767;42.688;23.360;2022-12-05T05:30:06;13.93;;;6.90;;
7450;SDS011;3767;42.688;23.360;2022-12-05T05:32:34;14.03;;;7.13;;
7450;SDS011;3767;42.688;23.360;2022-12-05T05:35:01;17.37;;;7.03;;
7450;SDS011;3767;42.688;23.360;2022-12-05T05:37:27;11.93;;;7.07;;
7450;SDS011;3767;42.688;23.360;2022-12-05T05:39:54;12.77;;;6.90;;
7450;SDS011;3767;42.688;23.360;2022-12-05T05:42:20;15.07;;;7.70;;
7450;SDS011;3767;42.688;23.360;2022-12-05T05:44:47;15.67;;;7.80;;
7450;SDS011;3767;42.688;23.360;2022-12-05T05:47:13;14.37;;;7.27;;
7450;SDS011;3767;42.688;23.360;2022-12-05T05:49:41;10.33;;;6.40;;
7450;SDS011;3767;42.688;23.360;2022-12-05T05:52:07;11.60;;;6.87;;
7450;SDS011;3767;42.688;23.360;2022-12-05T05:54:34;14.00;;;7.13;;
7450;SDS011;3767;42.688;23.360;2022-12-05T05:57:00;14.43;;;7.37;;
7450;SDS011;3767;42.688;23.360;2022-12-05T05:59:27;13.33;;;6.97;;
7450;SDS011;3767;42.688;23.360;2022-12-05T06:01:53;13.33;;;6.60;;
7450;SDS011;3767;42.688;23.360;2022-12-05T06:04:20;12.50;;;7.13;;
7450;SDS011;3767;42.688;23.360;2022-12-05T06:06:48;13.23;;;7.20;;
7450;SDS011;3767;42.688;23.360;2022-12-05T06:09:14;15.17;;;7.90;;
7450;SDS011;3767;42.688;23.360;2022-12-05T06:11:41;13.87;;;7.80;;
7450;SDS011;3767;42.688;23.360;2022-12-05T06:14:07;13.70;;;7.53;;
7450;SDS011;3767;42.688;23.360;2022-12-05T06:16:34;17.27;;;8.27;;
7450;SDS011;3767;42.688;23.360;2022-12-05T06:19:00;14.90;;;8.73;;
7450;SDS011;3767;42.688;23.360;2022-12-05T06:21:27;11.87;;;7.47;;
7450;SDS011;3767;42.688;23.360;2022-12-05T06:23:55;14.90;;;7.57;;
7450;SDS011;3767;42.688;23.360;2022-12-05T06:26:21;17.37;;;8.37;;
7450;SDS011;3767;42.688;23.360;2022-12-05T06:28:48;16.17;;;8.03;;
7450;SDS011;3767;42.688;23.360;2022-12-05T06:31:16;14.30;;;7.87;;
7450;SDS011;3767;42.688;23.360;2022-12-05T06:33:43;14.10;;;7.53;;
7450;SDS011;3767;42.688;23.360;2022-12-05T06:36:10;14.67;;;7.63;;
7450;SDS011;3767;42.688;23.360;2022-12-05T06:38:37;13.80;;;7.63;;
7450;SDS011;3767;42.688;23.360;2022-12-05T06:41:05;11.80;;;6.70;;
7450;SDS011;3767;42.688;23.360;2022-12-05T06:43:31;11.63;;;7.10;;
7450;SDS011;3767;42.688;23.360;2022-12-05T06:45:58;12.97;;;7.13;;
7450;SDS011;3767;42.688;23.360;2022-12-05T06:48:24;10.40;;;6.10;;
7450;SDS011;3767;42.688;23.360;2022-12-05T06:50:51;9.87;;;6.00;;
7450;SDS011;3767;42.688;23.360;2022-12-05T06:53:18;10.87;;;5.53;;
7450;SDS011;3767;42.688;23.360;2022-12-05T06:55:53;8.27;;;5.30;;
7450;SDS011;3767;42.688;23.360;2022-12-05T06:58:21;10.43;;;6.20;;
7450;SDS011;3767;42.688;23.360;2022-12-05T07:00:47;10.23;;;6.33;;
7450;SDS011;3767;42.688;23.360;2022-12-05T07:03:32;12.17;;;6.60;;
7450;SDS011;3767;42.688;23.360;2022-12-05T07:05:58;12.43;;;6.97;;
7450;SDS011;3767;42.688;23.360;2022-12-05T07:08:25;13.13;;;6.90;;
7450;SDS011;3767;42.688;23.360;2022-12-05T07:10:51;12.07;;;6.80;;
7450;SDS011;3767;42.688;23.360;2022-12-05T07:13:18;12.63;;;7.30;;
7450;SDS011;3767;42.688;23.360;2022-12-05T07:15:46;13.50;;;7.60;;
7450;SDS011;3767;42.688;23.360;2022-12-05T07:18:13;13.17;;;7.77;;
7450;SDS011;3767;42.688;23.360;2022-12-05T07:20:39;12.93;;;7.20;;
7450;SDS011;3767;42.688;23.360;2022-12-05T07:23:06;15.90;;;8.13;;
7450;SDS011;3767;42.688;23.360;2022-12-05T07:25:33;17.10;;;8.80;;
7450;SDS011;3767;42.688;23.360;2022-12-05T07:27:59;15.97;;;7.93;;
7450;SDS011;3767;42.688;23.360;2022-12-05T07:30:25;14.27;;;8.23;;
7450;SDS011;3767;42.688;23.360;2022-12-05T07:32:53;17.27;;;7.30;;
7450;SDS011;3767;42.688;23.360;2022-12-05T07:35:20;19.90;;;8.57;;
7450;SDS011;3767;42.688;23.360;2022-12-05T07:37:46;13.03;;;7.40;;
7450;SDS011;3767;42.688;23.360;2022-12-05T07:40:13;16.13;;;7.47;;
7450;SDS011;3767;42.688;23.360;2022-12-05T07:42:39;11.20;;;7.30;;
7450;SDS011;3767;42.688;23.360;2022-12-05T07:45:07;11.03;;;6.87;;
7450;SDS011;3767;42.688;23.360;2022-12-05T07:47:33;12.47;;;7.03;;
7450;SDS011;3767;42.688;23.360;2022-12-05T07:50:01;14.43;;;7.50;;
7450;SDS011;3767;42.688;23.360;2022-12-05T07:52:28;17.07;;;8.60;;
7450;SDS011;3767;42.688;23.360;2022-12-05T07:54:54;14.20;;;7.73;;
7450;SDS011;3767;42.688;23.360;2022-12-05T07:57:21;16.33;;;8.53;;
7450;SDS011;3767;42.688;23.360;2022-12-05T07:59:47;18.83;;;9.27;;
7450;SDS011;3767;42.688;23.360;2022-12-05T08:02:13;18.80;;;9.27;;
7450;SDS011;3767;42.688;23.360;2022-12-05T08:04:40;16.20;;;8.93;;
7450;SDS011;3767;42.688;23.360;2022-12-05T08:07:10;17.53;;;8.87;;
7450;SDS011;3767;42.688;23.360;2022-12-05T08:09:36;18.77;;;9.20;;
7450;SDS011;3767;42.688;23.360;2022-12-05T08:12:03;25.23;;;12.87;;
7450;SDS011;3767;42.688;23.360;2022-12-05T08:14:29;24.20;;;12.37;;
7450;SDS011;3767;42.688;23.360;2022-12-05T08:16:56;22.17;;;13.53;;
7450;SDS011;3767;42.688;23.360;2022-12-05T08:19:22;20.77;;;11.97;;
7450;SDS011;3767;42.688;23.360;2022-12-05T08:21:49;17.70;;;10.53;;
7450;SDS011;3767;42.688;23.360;2022-12-05T08:24:17;18.07;;;10.30;;
7450;SDS011;3767;42.688;23.360;2022-12-05T08:26:44;18.23;;;10.63;;
7450;SDS011;3767;42.688;23.360;2022-12-05T08:29:11;15.77;;;9.90;;
7450;SDS011;3767;42.688;23.360;2022-12-05T08:31:39;18.00;;;8.67;;
7450;SDS011;3767;42.688;23.360;2022-12-05T08:34:06;14.83;;;9.00;;
7450;SDS011;3767;42.688;23.360;2022-12-05T08:36:32;16.90;;;9.50;;
7450;SDS011;3767;42.688;23.360;2022-12-05T08:38:59;11.40;;;6.40;;
7450;SDS011;3767;42.688;23.360;2022-12-05T08:41:28;12.30;;;7.37;;
7450;SDS011;3767;42.688;23.360;2022-12-05T08:43:55;12.90;;;6.30;;
7450;SDS011;3767;42.688;23.360;2022-12-05T08:46:21;8.17;;;5.40;;
7450;SDS011;3767;42.688;23.360;2022-12-05T08:48:48;11.17;;;6.00;;
7450;SDS011;3767;42.688;23.360;2022-12-05T08:51:14;10.67;;;6.80;;
7450;SDS011;3767;42.688;23.360;2022-12-05T08:53:41;13.43;;;7.37;;
7450;SDS011;3767;42.688;23.360;2022-12-05T08:56:08;13.97;;;7.67;;
7450;SDS011;3767;42.688;23.360;2022-12-05T08:58:36;11.73;;;7.23;;
7450;SDS011;3767;42.688;23.360;2022-12-05T09:01:03;10.93;;;7.13;;
7450;SDS011;3767;42.688;23.360;2022-12-05T09:03:30;10.03;;;6.67;;
7450;SDS011;3767;42.688;23.360;2022-12-05T09:06:03;6.67;;;5.23;;
7450;SDS011;3767;42.688;23.360;2022-12-05T09:08:30;5.87;;;4.60;;
7450;SDS011;3767;42.688;23.360;2022-12-05T09:10:56;9.13;;;6.03;;
7450;SDS011;3767;42.688;23.360;2022-12-05T09:13:23;9.93;;;6.07;;
7450;SDS011;3767;42.688;23.360;2022-12-05T09:15:51;9.83;;;6.17;;
7450;SDS011;3767;42.688;23.360;2022-12-05T09:18:17;7.33;;;5.40;;
7450;SDS011;3767;42.688;23.360;2022-12-05T09:20:44;9.20;;;5.87;;
7450;SDS011;3767;42.688;23.360;2022-12-05T09:23:10;9.27;;;5.60;;
7450;SDS011;3767;42.688;23.360;2022-12-05T09:25:36;10.80;;;5.87;;
7450;SDS011;3767;42.688;23.360;2022-12-05T09:28:03;8.60;;;4.87;;
7450;SDS011;3767;42.688;23.360;2022-12-05T09:30:30;5.07;;;4.27;;
7450;SDS011;3767;42.688;23.360;2022-12-05T09:32:57;10.67;;;7.13;;
7450;SDS011;3767;42.688;23.360;2022-12-05T09:35:24;9.93;;;5.47;;
7450;SDS011;3767;42.688;23.360;2022-12-05T09:37:51;8.00;;;5.67;;
7450;SDS011;3767;42.688;23.360;2022-12-05T09:40:21;5.90;;;5.30;;
7450;SDS011;3767;42.688;23.360;2022-12-05T09:42:52;9.13;;;6.17;;
7450;SDS011;3767;42.688;23.360;2022-12-05T09:45:22;5.27;;;4.73;;
7450;SDS011;3767;42.688;23.360;2022-12-05T09:47:51;6.40;;;4.13;;
7450;SDS011;3767;42.688;23.360;2022-12-05T09:50:21;4.13;;;3.77;;
7450;SDS011;3767;42.688;23.360;2022-12-05T09:52:54;5.87;;;3.97;;
7450;SDS011;3767;42.688;23.360;2022-12-05T09:55:23;4.23;;;3.77;;
7450;SDS011;3767;42.688;23.360;2022-12-05T09:57:51;4.97;;;4.17;;
7450;SDS011;3767;42.688;23.360;2022-12-05T10:00:19;4.87;;;4.17;;
7450;SDS011;3767;42.688;23.360;2022-12-05T10:02:48;7.40;;;5.23;;
7450;SDS011;3767;42.688;23.360;2022-12-05T10:05:17;6.10;;;4.70;;
7450;SDS011;3767;42.688;23.360;2022-12-05T10:07:50;6.17;;;4.60;;
7450;SDS011;3767;42.688;23.360;2022-12-05T10:10:30;7.10;;;4.27;;
7450;SDS011;3767;42.688;23.360;2022-12-05T10:13:06;4.87;;;4.37;;
7450;SDS011;3767;42.688;23.360;2022-12-05T10:15:35;8.13;;;5.77;;
7450;SDS011;3767;42.688;23.360;2022-12-05T10:18:03;8.87;;;5.10;;
7450;SDS011;3767;42.688;23.360;2022-12-05T10:20:36;4.87;;;4.37;;
7450;SDS011;3767;42.688;23.360;2022-12-05T10:23:05;5.10;;;4.50;;
7450;SDS011;3767;42.688;23.360;2022-12-05T10:25:34;6.87;;;5.20;;
7450;SDS011;3767;42.688;23.360;2022-12-05T10:28:02;8.57;;;5.20;;
7450;SDS011;3767;42.688;23.360;2022-12-05T10:30:29;6.10;;;4.73;;
7450;SDS011;3767;42.688;23.360;2022-12-05T10:32:57;5.93;;;4.60;;
7450;SDS011;3767;42.688;23.360;2022-12-05T10:35:26;7.50;;;4.57;;
7450;SDS011;3767;42.688;23.360;2022-12-05T10:37:54;6.47;;;3.87;;
7450;SDS011;3767;42.688;23.360;2022-12-05T10:40:23;8.63;;;5.33;;
7450;SDS011;3767;42.688;23.360;2022-12-05T10:42:51;8.27;;;5.60;;
7450;SDS011;3767;42.688;23.360;2022-12-05T10:45:18;6.50;;;4.53;;
7450;SDS011;3767;42.688;23.360;2022-12-05T10:47:45;5.13;;;4.53;;
7450;SDS011;3767;42.688;23.360;2022-12-05T10:52:56;5.80;;;4.17;;
7450;SDS011;3767;42.688;23.360;2022-12-05T10:55:25;6.17;;;4.37;;
7450;SDS011;3767;42.688;23.360;2022-12-05T10:58:07;5.10;;;4.57;;
7450;SDS011;3767;42.688;23.360;2022-12-05T11:00:34;7.03;;;5.23;;
7450;SDS011;3767;42.688;23.360;2022-12-05T11:03:01;6.83;;;5.20;;
7450;SDS011;3767;42.688;23.360;2022-12-05T11:05:30;8.57;;;6.20;;
7450;SDS011;3767;42.688;23.360;2022-12-05T11:07:57;9.87;;;6.33;;
7450;SDS011;3767;42.688;23.360;2022-12-05T11:10:26;8.87;;;6.43;;
7450;SDS011;3767;42.688;23.360;2022-12-05T11:12:56;11.93;;;6.97;;
7450;SDS011;3767;42.688;23.360;2022-12-05T11:15:24;8.33;;;6.00;;
7450;SDS011;3767;42.688;23.360;2022-12-05T11:17:51;7.73;;;5.17;;
7450;SDS011;3767;42.688;23.360;2022-12-05T11:20:34;6.60;;;5.03;;
7450;SDS011;3767;42.688;23.360;2022-12-05T11:23:04;8.83;;;5.30;;
7450;SDS011;3767;42.688;23.360;2022-12-05T11:25:42;7.67;;;5.50;;
7450;SDS011;3767;42.688;23.360;2022-12-05T11:28:21;6.37;;;5.40;;
7450;SDS011;3767;42.688;23.360;2022-12-05T11:30:54;5.93;;;5.00;;
7450;SDS011;3767;42.688;23.360;2022-12-05T11:33:21;6.27;;;4.87;;
7450;SDS011;3767;42.688;23.360;2022-12-05T11:35:48;8.90;;;5.40;;
7450;SDS011;3767;42.688;23.360;2022-12-05T11:38:16;9.53;;;5.47;;
7450;SDS011;3767;42.688;23.360;2022-12-05T11:40:46;8.63;;;5.13;;
7450;SDS011;3767;42.688;23.360;2022-12-05T11:43:20;9.23;;;5.10;;
7450;SDS011;3767;42.688;23.360;2022-12-05T11:45:53;6.83;;;5.03;;
7450;SDS011;3767;42.688;23.360;2022-12-05T11:48:24;9.07;;;6.00;;
7450;SDS011;3767;42.688;23.360;2022-12-05T11:50:59;7.67;;;5.60;;
7450;SDS011;3767;42.688;23.360;2022-12-05T11:53:37;9.80;;;5.83;;
7450;SDS011;3767;42.688;23.360;2022-12-05T11:56:11;8.43;;;5.40;;
7450;SDS011;3767;42.688;23.360;2022-12-05T11:58:53;10.67;;;5.70;;
7450;SDS011;3767;42.688;23.360;2022-12-05T12:01:23;9.00;;;6.20;;
7450;SDS011;3767;42.688;23.360;2022-12-05T12:03:58;12.77;;;6.63;;
7450;SDS011;3767;42.688;23.360;2022-12-05T12:06:28;12.27;;;7.10;;
7450;SDS011;3767;42.688;23.360;2022-12-05T12:09:04;9.10;;;6.00;;
7450;SDS011;3767;42.688;23.360;2022-12-05T12:11:36;14.10;;;7.57;;
7450;SDS011;3767;42.688;23.360;2022-12-05T12:14:09;10.77;;;6.40;;
7450;SDS011;3767;42.688;23.360;2022-12-05T12:16:41;11.97;;;6.40;;
7450;SDS011;3767;42.688;23.360;2022-12-05T12:19:13;13.87;;;6.80;;
7450;SDS011;3767;42.688;23.360;2022-12-05T12:21:48;10.57;;;6.90;;
7450;SDS011;3767;42.688;23.360;2022-12-05T12:24:21;9.40;;;6.60;;
7450;SDS011;3767;42.688;23.360;2022-12-05T12:26:53;11.77;;;6.80;;
7450;SDS011;3767;42.688;23.360;2022-12-05T12:29:27;11.90;;;7.20;;
7450;SDS011;3767;42.688;23.360;2022-12-05T12:31:59;12.90;;;7.87;;
7450;SDS011;3767;42.688;23.360;2022-12-05T12:34:33;14.33;;;8.07;;
7450;SDS011;3767;42.688;23.360;2022-12-05T12:37:01;12.63;;;7.57;;
7450;SDS011;3767;42.688;23.360;2022-12-05T12:39:30;14.17;;;7.83;;
7450;SDS011;3767;42.688;23.360;2022-12-05T12:42:05;14.47;;;8.20;;
7450;SDS011;3767;42.688;23.360;2022-12-05T12:44:46;15.37;;;8.43;;
7450;SDS011;3767;42.688;23.360;2022-12-05T12:47:15;16.67;;;8.67;;
7450;SDS011;3767;42.688;23.360;2022-12-05T12:49:49;12.50;;;7.37;;
7450;SDS011;3767;42.688;23.360;2022-12-05T12:52:18;13.97;;;7.40;;
7450;SDS011;3767;42.688;23.360;2022-12-05T12:54:58;13.33;;;7.10;;
7450;SDS011;3767;42.688;23.360;2022-12-05T12:57:28;12.23;;;7.60;;
7450;SDS011;3767;42.688;23.360;2022-12-05T13:00:00;14.03;;;7.43;;
7450;SDS011;3767;42.688;23.360;2022-12-05T13:02:30;12.27;;;7.33;;
7450;SDS011;3767;42.688;23.360;2022-12-05T13:05:00;13.03;;;7.47;;
7450;SDS011;3767;42.688;23.360;2022-12-05T13:07:29;15.43;;;7.63;;
7450;SDS011;3767;42.688;23.360;2022-12-05T13:09:59;15.83;;;8.70;;
7450;SDS011;3767;42.688;23.360;2022-12-05T13:12:30;20.20;;;9.83;;
7450;SDS011;3767;42.688;23.360;2022-12-05T13:14:59;19.27;;;9.17;;
7450;SDS011;3767;42.688;23.360;2022-12-05T13:17:26;15.70;;;8.20;;
7450;SDS011;3767;42.688;23.360;2022-12-05T13:19:54;15.73;;;8.23;;
7450;SDS011;3767;42.688;23.360;2022-12-05T13:22:22;14.80;;;8.30;;
7450;SDS011;3767;42.688;23.360;2022-12-05T13:24:49;14.03;;;8.13;;
7450;SDS011;3767;42.688;23.360;2022-12-05T13:27:16;15.13;;;8.33;;
7450;SDS011;3767;42.688;23.360;2022-12-05T13:29:47;19.07;;;9.57;;
7450;SDS011;3767;42.688;23.360;2022-12-05T13:32:28;18.63;;;10.23;;
7450;SDS011;3767;42.688;23.360;2022-12-05T13:34:56;16.90;;;8.97;;
7450;SDS011;3767;42.688;23.360;2022-12-05T13:37:24;13.73;;;8.13;;
7450;SDS011;3767;42.688;23.360;2022-12-05T13:40:22;14.00;;;7.30;;
7450;SDS011;3767;42.688;23.360;2022-12-05T13:43:07;17.00;;;7.37;;
7450;SDS011;3767;42.688;23.360;2022-12-05T13:45:35;18.03;;;8.73;;
7450;SDS011;3767;42.688;23.360;2022-12-05T13:48:11;18.33;;;8.43;;
7450;SDS011;3767;42.688;23.360;2022-12-05T13:50:40;16.27;;;8.03;;
7450;SDS011;3767;42.688;23.360;2022-12-05T13:53:18;15.17;;;7.67;;
7450;SDS011;3767;42.688;23.360;2022-12-05T13:55:53;15.90;;;8.43;;
7450;SDS011;3767;42.688;23.360;2022-12-05T13:58:33;14.17;;;7.60;;
7450;SDS011;3767;42.688;23.360;2022-12-05T14:03:55;13.93;;;8.40;;
7450;SDS011;3767;42.688;23.360;2022-12-05T14:09:11;15.93;;;8.00;;
7450;SDS011;3767;42.688;23.360;2022-12-05T14:17:19;13.93;;;8.63;;
7450;SDS011;3767;42.688;23.360;2022-12-05T14:22:39;21.00;;;10.27;;
7450;SDS011;3767;42.688;23.360;2022-12-05T14:25:09;13.97;;;7.73;;
7450;SDS011;3767;42.688;23.360;2022-12-05T14:27:42;16.63;;;9.00;;
7450;SDS011;3767;42.688;23.360;2022-12-05T14:30:18;18.57;;;9.13;;
7450;SDS011;3767;42.688;23.360;2022-12-05T14:32:45;16.03;;;8.50;;
7450;SDS011;3767;42.688;23.360;2022-12-05T14:35:14;17.60;;;8.50;;
7450;SDS011;3767;42.688;23.360;2022-12-05T14:37:49;16.93;;;8.53;;
7450;SDS011;3767;42.688;23.360;2022-12-05T14:40:17;16.50;;;8.40;;
7450;SDS011;3767;42.688;23.360;2022-12-05T14:42:49;17.17;;;8.93;;
7450;SDS011;3767;42.688;23.360;2022-12-05T14:45:29;14.93;;;8.30;;
7450;SDS011;3767;42.688;23.360;2022-12-05T14:47:57;16.43;;;9.00;;
7450;SDS011;3767;42.688;23.360;2022-12-05T14:50:43;17.37;;;9.00;;
7450;SDS011;3767;42.688;23.360;2022-12-05T14:53:28;18.73;;;9.33;;
7450;SDS011;3767;42.688;23.360;2022-12-05T14:55:56;22.00;;;10.77;;
7450;SDS011;3767;42.688;23.360;2022-12-05T14:58:30;23.03;;;10.83;;
7450;SDS011;3767;42.688;23.360;2022-12-05T15:00:58;27.27;;;10.97;;
7450;SDS011;3767;42.688;23.360;2022-12-05T15:03:27;28.23;;;12.80;;
7450;SDS011;3767;42.688;23.360;2022-12-05T15:05:55;25.23;;;11.37;;
7450;SDS011;3767;42.688;23.360;2022-12-05T15:08:22;24.63;;;12.03;;
7450;SDS011;3767;42.688;23.360;2022-12-05T15:10:50;24.13;;;12.10;;
7450;SDS011;3767;42.688;23.360;2022-12-05T15:13:17;23.57;;;11.10;;
7450;SDS011;3767;42.688;23.360;2022-12-05T15:15:45;27.90;;;11.17;;
7450;SDS011;3767;42.688;23.360;2022-12-05T15:18:15;27.17;;;12.73;;
7450;SDS011;3767;42.688;23.360;2022-12-05T15:20:45;26.57;;;12.33;;
7450;SDS011;3767;42.688;23.360;2022-12-05T15:26:20;26.30;;;12.33;;